sensor_id;sensor_type;location;lat;lon;timestamp;pressure;altitude;pressure_sealevel;temperature
48854;BMP280;34673;52.808;17.856;2023-04-06T00:01:04;101092.84;;;1.40
48854;BMP280;34673;52.808;17.856;2023-04-06T00:03:31;101091.22;;;1.42
48854;BMP280;34673;52.808;17.856;2023-04-06T00:05:58;101086.91;;;1.41
48854;BMP280;34673;52.808;17.856;2023-04-06T00:08:26;101073.81;;;1.31
48854;BMP280;34673;52.808;17.856;2023-04-06T00:10:53;101089.34;;;1.38
48854;BMP280;34673;52.808;17.856;2023-04-06T00:13:20;101073.56;;;1.25
48854;BMP280;34673;52.808;17.856;2023-04-06T00:15:47;101089.22;;;1.35
48854;BMP280;34673;52.808;17.856;2023-04-06T00:18:14;101087.63;;;1.37
48854;BMP280;34673;52.808;17.856;2023-04-06T00:20:42;101088.28;;;1.32
48854;BMP280;34673;52.808;17.856;2023-04-06T00:23:09;101083.06;;;1.29
48854;BMP280;34673;52.808;17.856;2023-04-06T00:25:36;101088.25;;;1.31
48854;BMP280;34673;52.808;17.856;2023-04-06T00:28:03;101089.84;;;1.29
48854;BMP280;34673;52.808;17.856;2023-04-06T00:30:30;101087.22;;;1.27
48854;BMP280;34673;52.808;17.856;2023-04-06T00:32:57;101086.03;;;1.19
48854;BMP280;34673;52.808;17.856;2023-04-06T00:35:24;101082.75;;;1.22
48854;BMP280;34673;52.808;17.856;2023-04-06T00:37:52;101066.22;;;1.12
48854;BMP280;34673;52.808;17.856;2023-04-06T00:40:19;101087.72;;;1.19
48854;BMP280;34673;52.808;17.856;2023-04-06T00:42:46;101072.09;;;1.11
48854;BMP280;34673;52.808;17.856;2023-04-06T00:45:13;101079.75;;;1.11
48854;BMP280;34673;52.808;17.856;2023-04-06T00:47:40;101083.25;;;1.13
48854;BMP280;34673;52.808;17.856;2023-04-06T00:50:07;101079.63;;;1.08
48854;BMP280;34673;52.808;17.856;2023-04-06T00:52:34;101091.56;;;1.09
48854;BMP280;34673;52.808;17.856;2023-04-06T00:55:04;101089.69;;;1.05
48854;BMP280;34673;52.808;17.856;2023-04-06T00:57:37;101092.19;;;1.03
48854;BMP280;34673;52.808;17.856;2023-04-06T01:00:04;101087.56;;;0.95
48854;BMP280;34673;52.808;17.856;2023-04-06T01:02:32;101090.78;;;0.91
48854;BMP280;34673;52.808;17.856;2023-04-06T01:04:59;101094.53;;;0.99
48854;BMP280;34673;52.808;17.856;2023-04-06T01:07:37;101086.69;;;0.94
48854;BMP280;34673;52.808;17.856;2023-04-06T01:10:11;101090.31;;;0.99
48854;BMP280;34673;52.808;17.856;2023-04-06T01:12:49;101092.53;;;0.92
48854;BMP280;34673;52.808;17.856;2023-04-06T01:15:26;101093.25;;;0.89
48854;BMP280;34673;52.808;17.856;2023-04-06T01:17:55;101089.81;;;0.87
48854;BMP280;34673;52.808;17.856;2023-04-06T01:20:22;101086.34;;;0.86
48854;BMP280;34673;52.808;17.856;2023-04-06T01:22:50;101077.63;;;0.81
48854;BMP280;34673;52.808;17.856;2023-04-06T01:25:18;101084.41;;;0.81
48854;BMP280;34673;52.808;17.856;2023-04-06T01:28:01;101084.25;;;0.76
48854;BMP280;34673;52.808;17.856;2023-04-06T01:30:49;101081.53;;;0.73
48854;BMP280;34673;52.808;17.856;2023-04-06T01:33:36;101077.78;;;0.65
48854;BMP280;34673;52.808;17.856;2023-04-06T01:36:06;101087.19;;;0.66
48854;BMP280;34673;52.808;17.856;2023-04-06T01:38:33;101079.41;;;0.63
48854;BMP280;34673;52.808;17.856;2023-04-06T01:41:01;101073.38;;;0.61
48854;BMP280;34673;52.808;17.856;2023-04-06T01:43:35;101082.09;;;0.66
48854;BMP280;34673;52.808;17.856;2023-04-06T01:46:08;101084.63;;;0.66
48854;BMP280;34673;52.808;17.856;2023-04-06T01:48:39;101092.06;;;0.61
48854;BMP280;34673;52.808;17.856;2023-04-06T01:51:20;101066.09;;;0.49
48854;BMP280;34673;52.808;17.856;2023-04-06T01:53:53;101089.31;;;0.57
48854;BMP280;34673;52.808;17.856;2023-04-06T01:56:25;101084.81;;;0.51
48854;BMP280;34673;52.808;17.856;2023-04-06T01:59:07;101088.91;;;0.48
48854;BMP280;34673;52.808;17.856;2023-04-06T02:01:39;101078.34;;;0.38
48854;BMP280;34673;52.808;17.856;2023-04-06T02:04:06;101090.13;;;0.36
48854;BMP280;34673;52.808;17.856;2023-04-06T02:06:33;101089.97;;;0.33
48854;BMP280;34673;52.808;17.856;2023-04-06T02:09:02;101076.22;;;0.30
48854;BMP280;34673;52.808;17.856;2023-04-06T02:11:29;101070.94;;;0.25
48854;BMP280;34673;52.808;17.856;2023-04-06T02:13:56;101081.66;;;0.37
48854;BMP280;34673;52.808;17.856;2023-04-06T02:16:28;101075.78;;;0.38
48854;BMP280;34673;52.808;17.856;2023-04-06T02:18:55;101086.75;;;0.37
48854;BMP280;34673;52.808;17.856;2023-04-06T02:21:22;101042.34;;;0.11
48854;BMP280;34673;52.808;17.856;2023-04-06T02:23:49;101088.22;;;0.32
48854;BMP280;34673;52.808;17.856;2023-04-06T02:26:17;101079.66;;;0.30
48854;BMP280;34673;52.808;17.856;2023-04-06T02:28:44;101066.50;;;0.21
48854;BMP280;34673;52.808;17.856;2023-04-06T02:31:11;101060.34;;;0.16
48854;BMP280;34673;52.808;17.856;2023-04-06T02:33:38;101084.59;;;0.27
48854;BMP280;34673;52.808;17.856;2023-04-06T02:36:06;101075.91;;;0.22
48854;BMP280;34673;52.808;17.856;2023-04-06T02:38:33;101080.81;;;0.19
48854;BMP280;34673;52.808;17.856;2023-04-06T02:41:01;101078.22;;;0.17
48854;BMP280;34673;52.808;17.856;2023-04-06T02:43:28;101063.28;;;0.06
48854;BMP280;34673;52.808;17.856;2023-04-06T02:46:12;101077.38;;;0.17
48854;BMP280;34673;52.808;17.856;2023-04-06T02:48:40;101094.09;;;0.12
48854;BMP280;34673;52.808;17.856;2023-04-06T02:51:07;101077.59;;;0.04
48854;BMP280;34673;52.808;17.856;2023-04-06T02:53:36;101081.59;;;-0.02
48854;BMP280;34673;52.808;17.856;2023-04-06T02:56:03;101076.38;;;-0.05
48854;BMP280;34673;52.808;17.856;2023-04-06T02:58:41;101090.97;;;-0.01
48854;BMP280;34673;52.808;17.856;2023-04-06T03:01:08;101091.78;;;-0.02
48854;BMP280;34673;52.808;17.856;2023-04-06T03:03:36;101084.50;;;-0.12
48854;BMP280;34673;52.808;17.856;2023-04-06T03:06:08;101072.16;;;-0.22
48854;BMP280;34673;52.808;17.856;2023-04-06T03:08:35;101103.53;;;-0.04
48854;BMP280;34673;52.808;17.856;2023-04-06T03:11:02;101080.00;;;-0.17
48854;BMP280;34673;52.808;17.856;2023-04-06T03:13:37;101086.09;;;-0.14
48854;BMP280;34673;52.808;17.856;2023-04-06T03:16:06;101064.34;;;-0.27
48854;BMP280;34673;52.808;17.856;2023-04-06T03:18:33;101108.78;;;-0.01
48854;BMP280;34673;52.808;17.856;2023-04-06T03:21:01;101098.47;;;-0.04
48854;BMP280;34673;52.808;17.856;2023-04-06T03:23:38;101085.09;;;0.01
48854;BMP280;34673;52.808;17.856;2023-04-06T03:26:05;101100.78;;;0.10
48854;BMP280;34673;52.808;17.856;2023-04-06T03:28:33;101104.25;;;0.12
48854;BMP280;34673;52.808;17.856;2023-04-06T03:31:03;101096.50;;;0.09
48854;BMP280;34673;52.808;17.856;2023-04-06T03:33:44;101099.03;;;0.09
48854;BMP280;34673;52.808;17.856;2023-04-06T03:36:21;101099.31;;;0.15
48854;BMP280;34673;52.808;17.856;2023-04-06T03:38:48;101098.44;;;0.14
48854;BMP280;34673;52.808;17.856;2023-04-06T03:41:15;101102.66;;;0.14
48854;BMP280;34673;52.808;17.856;2023-04-06T03:43:50;101106.72;;;0.10
48854;BMP280;34673;52.808;17.856;2023-04-06T03:46:17;101097.97;;;0.04
48854;BMP280;34673;52.808;17.856;2023-04-06T03:48:45;101102.09;;;0.02
48854;BMP280;34673;52.808;17.856;2023-04-06T03:51:12;101075.94;;;-0.14
48854;BMP280;34673;52.808;17.856;2023-04-06T03:53:40;101110.81;;;0.07
48854;BMP280;34673;52.808;17.856;2023-04-06T03:56:07;101102.09;;;0.02
48854;BMP280;34673;52.808;17.856;2023-04-06T03:58:34;101115.03;;;0.06
48854;BMP280;34673;52.808;17.856;2023-04-06T04:01:01;101109.81;;;0.03
48854;BMP280;34673;52.808;17.856;2023-04-06T04:03:28;101105.88;;;0.10
48854;BMP280;34673;52.808;17.856;2023-04-06T04:05:56;101118.06;;;0.17
48854;BMP280;34673;52.808;17.856;2023-04-06T04:08:24;101107.91;;;0.17
48854;BMP280;34673;52.808;17.856;2023-04-06T04:10:51;101116.63;;;0.22
48854;BMP280;34673;52.808;17.856;2023-04-06T04:13:19;101116.63;;;0.22
48854;BMP280;34673;52.808;17.856;2023-04-06T04:15:48;101091.09;;;0.03
48854;BMP280;34673;52.808;17.856;2023-04-06T04:18:15;101119.66;;;0.15
48854;BMP280;34673;52.808;17.856;2023-04-06T04:20:42;101110.66;;;0.04
48854;BMP280;34673;52.808;17.856;2023-04-06T04:23:11;101101.53;;;-0.11
48854;BMP280;34673;52.808;17.856;2023-04-06T04:25:38;101123.88;;;-0.04
48854;BMP280;34673;52.808;17.856;2023-04-06T04:28:06;101122.28;;;-0.02
48854;BMP280;34673;52.808;17.856;2023-04-06T04:30:34;101117.34;;;0.02
48854;BMP280;34673;52.808;17.856;2023-04-06T04:33:06;101123.25;;;0.01
48854;BMP280;34673;52.808;17.856;2023-04-06T04:35:33;101122.88;;;-0.07
48854;BMP280;34673;52.808;17.856;2023-04-06T04:38:01;101126.78;;;-0.14
48854;BMP280;34673;52.808;17.856;2023-04-06T04:40:29;101120.84;;;-0.14
48854;BMP280;34673;52.808;17.856;2023-04-06T04:43:05;101106.31;;;-0.17
48854;BMP280;34673;52.808;17.856;2023-04-06T04:45:33;101122.28;;;-0.02
48854;BMP280;34673;52.808;17.856;2023-04-06T04:48:20;101120.84;;;0.04
48854;BMP280;34673;52.808;17.856;2023-04-06T04:50:55;101122.56;;;0.05
48854;BMP280;34673;52.808;17.856;2023-04-06T04:53:27;101128.25;;;0.17
48854;BMP280;34673;52.808;17.856;2023-04-06T04:56:00;101127.06;;;0.28
48854;BMP280;34673;52.808;17.856;2023-04-06T04:58:27;101122.25;;;0.34
48854;BMP280;34673;52.808;17.856;2023-04-06T05:00:57;101125.00;;;0.39
48854;BMP280;34673;52.808;17.856;2023-04-06T05:03:25;101126.88;;;0.43
48854;BMP280;34673;52.808;17.856;2023-04-06T05:06:03;101129.00;;;0.52
48854;BMP280;34673;52.808;17.856;2023-04-06T05:08:34;101131.66;;;0.55
48854;BMP280;34673;52.808;17.856;2023-04-06T05:11:01;101136.75;;;0.55
48854;BMP280;34673;52.808;17.856;2023-04-06T05:13:33;101133.53;;;0.59
48854;BMP280;34673;52.808;17.856;2023-04-06T05:16:06;101124.34;;;0.62
48854;BMP280;34673;52.808;17.856;2023-04-06T05:18:34;101139.06;;;0.68
48854;BMP280;34673;52.808;17.856;2023-04-06T05:21:02;101132.19;;;0.67
48854;BMP280;34673;52.808;17.856;2023-04-06T05:23:52;101138.03;;;0.64
48854;BMP280;34673;52.808;17.856;2023-04-06T05:26:21;101116.66;;;0.61
48854;BMP280;34673;52.808;17.856;2023-04-06T05:28:51;101134.34;;;0.77
48854;BMP280;34673;52.808;17.856;2023-04-06T05:31:19;101132.63;;;0.76
48854;BMP280;34673;52.808;17.856;2023-04-06T05:33:49;101140.19;;;0.75
48854;BMP280;34673;52.808;17.856;2023-04-06T05:36:26;101137.97;;;0.82
48854;BMP280;34673;52.808;17.856;2023-04-06T05:38:53;101135.03;;;0.93
48854;BMP280;34673;52.808;17.856;2023-04-06T05:41:42;101137.03;;;1.00
48854;BMP280;34673;52.808;17.856;2023-04-06T05:44:10;101141.59;;;1.07
48854;BMP280;34673;52.808;17.856;2023-04-06T05:46:40;101142.84;;;1.17
48854;BMP280;34673;52.808;17.856;2023-04-06T05:49:14;101139.72;;;1.22
48854;BMP280;34673;52.808;17.856;2023-04-06T05:51:41;101136.47;;;1.26
48854;BMP280;34673;52.808;17.856;2023-04-06T05:54:08;101139.00;;;1.26
48854;BMP280;34673;52.808;17.856;2023-04-06T05:56:36;101136.59;;;1.29
48854;BMP280;34673;52.808;17.856;2023-04-06T05:59:05;101135.22;;;1.38
48854;BMP280;34673;52.808;17.856;2023-04-06T06:01:33;101121.69;;;1.39
48854;BMP280;34673;52.808;17.856;2023-04-06T06:04:01;101137.72;;;1.57
48854;BMP280;34673;52.808;17.856;2023-04-06T06:06:31;101144.81;;;1.64
48854;BMP280;34673;52.808;17.856;2023-04-06T06:09:14;101134.81;;;1.69
48854;BMP280;34673;52.808;17.856;2023-04-06T06:11:52;101132.50;;;1.75
48854;BMP280;34673;52.808;17.856;2023-04-06T06:14:23;101131.88;;;1.81
48854;BMP280;34673;52.808;17.856;2023-04-06T06:16:50;101139.09;;;1.91
48854;BMP280;34673;52.808;17.856;2023-04-06T06:19:18;101135.97;;;1.98
48854;BMP280;34673;52.808;17.856;2023-04-06T06:21:45;101137.19;;;2.08
48854;BMP280;34673;52.808;17.856;2023-04-06T06:24:13;101141.78;;;2.16
48854;BMP280;34673;52.808;17.856;2023-04-06T06:26:41;101142.94;;;2.25
48854;BMP280;34673;52.808;17.856;2023-04-06T06:29:09;101132.81;;;2.26
48854;BMP280;34673;52.808;17.856;2023-04-06T06:31:38;101133.16;;;2.35
48854;BMP280;34673;52.808;17.856;2023-04-06T06:34:06;101137.72;;;2.44
48854;BMP280;34673;52.808;17.856;2023-04-06T06:36:35;101134.59;;;2.51
48854;BMP280;34673;52.808;17.856;2023-04-06T06:39:05;101134.81;;;2.57
48854;BMP280;34673;52.808;17.856;2023-04-06T06:41:33;101133.19;;;2.59
48854;BMP280;34673;52.808;17.856;2023-04-06T06:44:00;101131.56;;;2.61
48854;BMP280;34673;52.808;17.856;2023-04-06T06:46:28;101131.69;;;2.64
48854;BMP280;34673;52.808;17.856;2023-04-06T06:48:55;101112.97;;;2.65
48854;BMP280;34673;52.808;17.856;2023-04-06T06:51:22;101132.25;;;2.80
48854;BMP280;34673;52.808;17.856;2023-04-06T06:53:49;101125.59;;;2.85
48854;BMP280;34673;52.808;17.856;2023-04-06T06:56:16;101136.47;;;3.03
48854;BMP280;34673;52.808;17.856;2023-04-06T06:58:43;101128.31;;;3.14
48854;BMP280;34673;52.808;17.856;2023-04-06T07:01:10;101129.63;;;3.28
48854;BMP280;34673;52.808;17.856;2023-04-06T07:03:37;101117.09;;;3.34
48854;BMP280;34673;52.808;17.856;2023-04-06T07:06:04;101130.72;;;3.60
48854;BMP280;34673;52.808;17.856;2023-04-06T07:08:31;101126.78;;;3.70
48854;BMP280;34673;52.808;17.856;2023-04-06T07:10:58;101132.66;;;3.94
48854;BMP280;34673;52.808;17.856;2023-04-06T07:13:26;101122.88;;;4.10
48854;BMP280;34673;52.808;17.856;2023-04-06T07:15:56;101124.78;;;4.15
48854;BMP280;34673;52.808;17.856;2023-04-06T07:18:24;101125.13;;;4.26
48854;BMP280;34673;52.808;17.856;2023-04-06T07:20:52;101104.50;;;4.23
48854;BMP280;34673;52.808;17.856;2023-04-06T07:23:19;101110.09;;;4.38
48854;BMP280;34673;52.808;17.856;2023-04-06T07:25:46;101112.44;;;4.61
48854;BMP280;34673;52.808;17.856;2023-04-06T07:28:13;101118.16;;;4.82
48854;BMP280;34673;52.808;17.856;2023-04-06T07:30:41;101117.66;;;4.94
48854;BMP280;34673;52.808;17.856;2023-04-06T07:33:09;101113.63;;;5.04
48854;BMP280;34673;52.808;17.856;2023-04-06T07:35:37;101107.78;;;5.09
48854;BMP280;34673;52.808;17.856;2023-04-06T07:38:05;101093.44;;;5.16
48854;BMP280;34673;52.808;17.856;2023-04-06T07:40:33;101085.06;;;5.23
48854;BMP280;34673;52.808;17.856;2023-04-06T07:43:02;101112.44;;;5.58
48854;BMP280;34673;52.808;17.856;2023-04-06T07:45:29;101117.16;;;5.75
48854;BMP280;34673;52.808;17.856;2023-04-06T07:47:57;101108.88;;;5.89
48854;BMP280;34673;52.808;17.856;2023-04-06T07:50:26;101107.47;;;6.00
48854;BMP280;34673;52.808;17.856;2023-04-06T07:52:54;101116.59;;;6.27
48854;BMP280;34673;52.808;17.856;2023-04-06T07:55:21;101103.13;;;6.37
48854;BMP280;34673;52.808;17.856;2023-04-06T07:57:49;101109.63;;;6.60
48854;BMP280;34673;52.808;17.856;2023-04-06T08:00:16;101089.88;;;6.59
48854;BMP280;34673;52.808;17.856;2023-04-06T08:02:43;101111.75;;;6.81
48854;BMP280;34673;52.808;17.856;2023-04-06T08:05:11;101106.03;;;6.96
48854;BMP280;34673;52.808;17.856;2023-04-06T08:07:38;101107.03;;;7.04
48854;BMP280;34673;52.808;17.856;2023-04-06T08:10:05;101109.66;;;7.07
48854;BMP280;34673;52.808;17.856;2023-04-06T08:12:33;101102.03;;;7.14
48854;BMP280;34673;52.808;17.856;2023-04-06T08:15:00;101108.41;;;7.34
48854;BMP280;34673;52.808;17.856;2023-04-06T08:17:31;101100.16;;;7.53
48854;BMP280;34673;52.808;17.856;2023-04-06T08:19:58;101103.75;;;7.65
48854;BMP280;34673;52.808;17.856;2023-04-06T08:22:25;101083.06;;;7.59
48854;BMP280;34673;52.808;17.856;2023-04-06T08:24:53;101098.78;;;7.74
48854;BMP280;34673;52.808;17.856;2023-04-06T08:27:20;101100.63;;;7.84
48854;BMP280;34673;52.808;17.856;2023-04-06T08:29:49;101077.28;;;7.73
48854;BMP280;34673;52.808;17.856;2023-04-06T08:32:16;101102.19;;;7.73
48854;BMP280;34673;52.808;17.856;2023-04-06T08:34:43;101099.63;;;7.74
48854;BMP280;34673;52.808;17.856;2023-04-06T08:37:10;101100.47;;;7.72
48854;BMP280;34673;52.808;17.856;2023-04-06T08:39:37;101102.03;;;7.64
48854;BMP280;34673;52.808;17.856;2023-04-06T08:42:16;101091.59;;;7.54
48854;BMP280;34673;52.808;17.856;2023-04-06T08:44:46;101103.13;;;7.78
48854;BMP280;34673;52.808;17.856;2023-04-06T08:47:14;101103.13;;;7.78
48854;BMP280;34673;52.808;17.856;2023-04-06T08:49:41;101078.66;;;7.50
48854;BMP280;34673;52.808;17.856;2023-04-06T08:52:10;101105.53;;;7.66
48854;BMP280;34673;52.808;17.856;2023-04-06T08:54:38;101107.28;;;7.70
48854;BMP280;34673;52.808;17.856;2023-04-06T08:57:05;101094.97;;;7.50
48854;BMP280;34673;52.808;17.856;2023-04-06T08:59:33;101096.50;;;7.39
48854;BMP280;34673;52.808;17.856;2023-04-06T09:02:03;101106.56;;;7.27
48854;BMP280;34673;52.808;17.856;2023-04-06T09:04:33;101101.22;;;7.16
48854;BMP280;34673;52.808;17.856;2023-04-06T09:07:01;101102.59;;;6.97
48854;BMP280;34673;52.808;17.856;2023-04-06T09:09:28;101101.59;;;6.89
48854;BMP280;34673;52.808;17.856;2023-04-06T09:11:56;101104.16;;;6.89
48854;BMP280;34673;52.808;17.856;2023-04-06T09:14:38;101096.69;;;7.03
48854;BMP280;34673;52.808;17.856;2023-04-06T09:17:06;101089.34;;;7.23
48854;BMP280;34673;52.808;17.856;2023-04-06T09:19:33;101096.63;;;7.48
48854;BMP280;34673;52.808;17.856;2023-04-06T09:22:04;101089.31;;;7.73
48854;BMP280;34673;52.808;17.856;2023-04-06T09:24:45;101086.25;;;8.00
48854;BMP280;34673;52.808;17.856;2023-04-06T09:27:13;101089.16;;;8.23
48854;BMP280;34673;52.808;17.856;2023-04-06T09:29:41;101049.56;;;8.15
48854;BMP280;34673;52.808;17.856;2023-04-06T09:32:09;101070.50;;;8.39
48854;BMP280;34673;52.808;17.856;2023-04-06T09:34:43;101069.78;;;8.51
48854;BMP280;34673;52.808;17.856;2023-04-06T09:37:18;101086.38;;;8.73
48854;BMP280;34673;52.808;17.856;2023-04-06T09:39:46;101082.06;;;8.72
48854;BMP280;34673;52.808;17.856;2023-04-06T09:42:25;101077.72;;;8.68
48854;BMP280;34673;52.808;17.856;2023-04-06T09:44:52;101073.44;;;8.69
48854;BMP280;34673;52.808;17.856;2023-04-06T09:47:20;101076.84;;;8.66
48854;BMP280;34673;52.808;17.856;2023-04-06T09:49:57;101081.09;;;8.61
48854;BMP280;34673;52.808;17.856;2023-04-06T09:52:32;101072.22;;;8.40
48854;BMP280;34673;52.808;17.856;2023-04-06T09:55:02;101073.22;;;8.52
48854;BMP280;34673;52.808;17.856;2023-04-06T09:57:58;101084.41;;;8.51
48854;BMP280;34673;52.808;17.856;2023-04-06T10:00:29;101076.84;;;8.66
48854;BMP280;34673;52.808;17.856;2023-04-06T10:03:28;101057.88;;;8.61
48854;BMP280;34673;52.808;17.856;2023-04-06T10:05:55;101062.13;;;8.59
48854;BMP280;34673;52.808;17.856;2023-04-06T10:08:27;101075.88;;;8.56
48854;BMP280;34673;52.808;17.856;2023-04-06T10:10:58;101060.50;;;8.67
48854;BMP280;34673;52.808;17.856;2023-04-06T10:13:27;101065.66;;;8.67
48854;BMP280;34673;52.808;17.856;2023-04-06T10:15:54;101068.84;;;8.46
48854;BMP280;34673;52.808;17.856;2023-04-06T10:18:22;101056.41;;;8.16
48854;BMP280;34673;52.808;17.856;2023-04-06T10:20:53;101035.75;;;8.10
48854;BMP280;34673;52.808;17.856;2023-04-06T10:23:41;101060.31;;;8.52
48854;BMP280;34673;52.808;17.856;2023-04-06T10:26:19;101053.50;;;8.57
48854;BMP280;34673;52.808;17.856;2023-04-06T10:28:48;101057.09;;;8.71
48854;BMP280;34673;52.808;17.856;2023-04-06T10:31:24;101060.59;;;8.76
48854;BMP280;34673;52.808;17.856;2023-04-06T10:36:25;101048.78;;;8.97
48854;BMP280;34673;52.808;17.856;2023-04-06T10:38:58;101033.28;;;8.94
48854;BMP280;34673;52.808;17.856;2023-04-06T10:41:43;101029.13;;;9.11
48854;BMP280;34673;52.808;17.856;2023-04-06T10:44:24;101030.16;;;9.31
48854;BMP280;34673;52.808;17.856;2023-04-06T10:46:59;101025.06;;;9.41
48854;BMP280;34673;52.808;17.856;2023-04-06T10:49:29;101037.22;;;9.54
48854;BMP280;34673;52.808;17.856;2023-04-06T10:51:56;101030.34;;;9.56
48854;BMP280;34673;52.808;17.856;2023-04-06T10:54:25;101032.88;;;9.51
48854;BMP280;34673;52.808;17.856;2023-04-06T10:56:53;101018.31;;;9.58
48854;BMP280;34673;52.808;17.856;2023-04-06T10:59:22;101020.00;;;9.56
48854;BMP280;34673;52.808;17.856;2023-04-06T11:01:51;101030.22;;;9.39
48854;BMP280;34673;52.808;17.856;2023-04-06T11:04:20;101006.91;;;9.28
48854;BMP280;34673;52.808;17.856;2023-04-06T11:06:49;101009.56;;;9.41
48854;BMP280;34673;52.808;17.856;2023-04-06T11:09:27;100993.28;;;9.51
48854;BMP280;34673;52.808;17.856;2023-04-06T11:11:54;100999.34;;;9.56
48854;BMP280;34673;52.808;17.856;2023-04-06T11:14:23;101002.81;;;9.61
48854;BMP280;34673;52.808;17.856;2023-04-06T11:16:50;101001.16;;;9.69
48854;BMP280;34673;52.808;17.856;2023-04-06T11:19:18;101000.16;;;9.52
48854;BMP280;34673;52.808;17.856;2023-04-06T11:21:48;100990.81;;;9.66
48854;BMP280;34673;52.808;17.856;2023-04-06T11:24:24;100993.47;;;9.85
48854;BMP280;34673;52.808;17.856;2023-04-06T11:26:54;100991.78;;;9.85
48854;BMP280;34673;52.808;17.856;2023-04-06T11:29:22;100984.00;;;9.81
48854;BMP280;34673;52.808;17.856;2023-04-06T11:31:58;100992.53;;;9.67
48854;BMP280;34673;52.808;17.856;2023-04-06T11:34:27;100992.44;;;9.55
48854;BMP280;34673;52.808;17.856;2023-04-06T11:39:27;100989.06;;;9.65
48854;BMP280;34673;52.808;17.856;2023-04-06T11:41:59;100952.84;;;9.50
48854;BMP280;34673;52.808;17.856;2023-04-06T11:44:35;100973.50;;;9.50
48854;BMP280;34673;52.808;17.856;2023-04-06T11:47:04;100970.03;;;9.48
48854;BMP280;34673;52.808;17.856;2023-04-06T11:49:32;100975.19;;;9.48
48854;BMP280;34673;52.808;17.856;2023-04-06T11:52:00;100967.50;;;9.56
48854;BMP280;34673;52.808;17.856;2023-04-06T11:54:33;100965.75;;;9.54
48854;BMP280;34673;52.808;17.856;2023-04-06T11:57:02;100965.69;;;9.47
48854;BMP280;34673;52.808;17.856;2023-04-06T11:59:30;100957.88;;;9.35
48854;BMP280;34673;52.808;17.856;2023-04-06T12:01:58;100956.13;;;9.33
48854;BMP280;34673;52.808;17.856;2023-04-06T12:04:25;100940.59;;;9.24
48854;BMP280;34673;52.808;17.856;2023-04-06T12:06:52;100954.44;;;9.36
48854;BMP280;34673;52.808;17.856;2023-04-06T12:09:19;100947.53;;;9.31
48854;BMP280;34673;52.808;17.856;2023-04-06T12:11:46;100956.97;;;9.26
48854;BMP280;34673;52.808;17.856;2023-04-06T12:14:13;100948.38;;;9.30
48854;BMP280;34673;52.808;17.856;2023-04-06T12:16:40;100951.81;;;9.28
48854;BMP280;34673;52.808;17.856;2023-04-06T12:19:08;100954.44;;;9.32
48854;BMP280;34673;52.808;17.856;2023-04-06T12:21:35;100938.06;;;9.33
48854;BMP280;34673;52.808;17.856;2023-04-06T12:24:05;100945.91;;;9.49
48854;BMP280;34673;52.808;17.856;2023-04-06T12:26:33;100931.31;;;9.57
48854;BMP280;34673;52.808;17.856;2023-04-06T12:29:00;100928.72;;;9.54
48854;BMP280;34673;52.808;17.856;2023-04-06T12:31:37;100922.66;;;9.46
48854;BMP280;34673;52.808;17.856;2023-04-06T12:34:06;100925.19;;;9.38
48854;BMP280;34673;52.808;17.856;2023-04-06T12:36:33;100922.59;;;9.32
48854;BMP280;34673;52.808;17.856;2023-04-06T12:39:01;100919.16;;;9.35
48854;BMP280;34673;52.808;17.856;2023-04-06T12:41:29;100911.44;;;9.44
48854;BMP280;34673;52.808;17.856;2023-04-06T12:43:56;100916.63;;;9.47
48854;BMP280;34673;52.808;17.856;2023-04-06T12:46:23;100916.63;;;9.44
48854;BMP280;34673;52.808;17.856;2023-04-06T12:48:53;100895.00;;;9.23
48854;BMP280;34673;52.808;17.856;2023-04-06T12:51:22;100909.56;;;9.12
48854;BMP280;34673;52.808;17.856;2023-04-06T12:53:49;100914.66;;;9.06
48854;BMP280;34673;52.808;17.856;2023-04-06T12:56:17;100912.97;;;9.08
48854;BMP280;34673;52.808;17.856;2023-04-06T12:58:45;100907.81;;;9.14
48854;BMP280;34673;52.808;17.856;2023-04-06T13:01:12;100905.28;;;9.19
48854;BMP280;34673;52.808;17.856;2023-04-06T13:03:40;100896.72;;;9.24
48854;BMP280;34673;52.808;17.856;2023-04-06T13:06:08;100888.06;;;9.16
48854;BMP280;34673;52.808;17.856;2023-04-06T13:08:35;100888.88;;;9.09
48854;BMP280;34673;52.808;17.856;2023-04-06T13:11:04;100875.13;;;9.07
48854;BMP280;34673;52.808;17.856;2023-04-06T13:13:32;100888.00;;;9.08
48854;BMP280;34673;52.808;17.856;2023-04-06T13:16:01;100884.53;;;9.06
48854;BMP280;34673;52.808;17.856;2023-04-06T13:18:29;100871.56;;;8.93
48854;BMP280;34673;52.808;17.856;2023-04-06T13:20:58;100875.81;;;8.83
48854;BMP280;34673;52.808;17.856;2023-04-06T13:23:26;100885.16;;;8.70
48854;BMP280;34673;52.808;17.856;2023-04-06T13:26:00;100876.41;;;8.50
48854;BMP280;34673;52.808;17.856;2023-04-06T13:28:27;100877.97;;;8.38
48854;BMP280;34673;52.808;17.856;2023-04-06T13:30:54;100868.44;;;8.30
48854;BMP280;34673;52.808;17.856;2023-04-06T13:33:22;100871.03;;;8.31
48854;BMP280;34673;52.808;17.856;2023-04-06T13:35:49;100873.66;;;8.37
48854;BMP280;34673;52.808;17.856;2023-04-06T13:38:17;100863.41;;;8.40
48854;BMP280;34673;52.808;17.856;2023-04-06T13:40:44;100847.78;;;8.24
48854;BMP280;34673;52.808;17.856;2023-04-06T13:43:11;100859.03;;;8.33
48854;BMP280;34673;52.808;17.856;2023-04-06T13:45:38;100841.78;;;8.26
48854;BMP280;34673;52.808;17.856;2023-04-06T13:48:06;100866.09;;;8.53
48854;BMP280;34673;52.808;17.856;2023-04-06T13:50:33;100842.94;;;8.56
48854;BMP280;34673;52.808;17.856;2023-04-06T13:53:00;100843.84;;;8.64
48854;BMP280;34673;52.808;17.856;2023-04-06T13:55:27;100856.00;;;8.77
48854;BMP280;34673;52.808;17.856;2023-04-06T13:57:55;100837.06;;;8.75
48854;BMP280;34673;52.808;17.856;2023-04-06T14:00:22;100838.84;;;8.85
48854;BMP280;34673;52.808;17.856;2023-04-06T14:02:50;100838.00;;;8.88
48854;BMP280;34673;52.808;17.856;2023-04-06T14:05:17;100845.69;;;8.83
48854;BMP280;34673;52.808;17.856;2023-04-06T14:07:44;100847.34;;;8.69
48854;BMP280;34673;52.808;17.856;2023-04-06T14:10:11;100831.75;;;8.57
48854;BMP280;34673;52.808;17.856;2023-04-06T14:12:41;100831.72;;;8.54
48854;BMP280;34673;52.808;17.856;2023-04-06T14:15:10;100829.19;;;8.55